createdAt,value
2019-02-06T00:00:29.356Z,0
2019-02-06T00:01:30.120Z,0
2019-02-06T00:02:30.588Z,0
2019-02-06T00:03:31.043Z,0
2019-02-06T00:04:32.274Z,0
2019-02-06T00:05:33.702Z,0
2019-02-06T00:06:34.071Z,0
2019-02-06T00:07:35.937Z,0
2019-02-06T00:08:35.366Z,0
2019-02-06T00:09:35.877Z,0
2019-02-06T00:10:37.001Z,0
2019-02-06T00:11:37.750Z,0
2019-02-06T00:12:39.739Z,0
2019-02-06T00:13:40.032Z,0
2019-02-06T00:14:40.182Z,0
2019-02-06T00:15:42.557Z,0
2019-02-06T00:16:41.636Z,0
2019-02-06T00:17:42.527Z,0
2019-02-06T00:18:44.099Z,0
2019-02-06T00:19:44.160Z,0
2019-02-06T00:20:45.156Z,0
2019-02-06T00:21:45.879Z,0
2019-02-06T00:22:46.611Z,0
2019-02-06T00:23:48.938Z,0
2019-02-06T00:24:47.313Z,0
2019-02-06T00:25:48.878Z,0
2019-02-06T00:26:49.317Z,0
2019-02-06T00:27:50.218Z,0
2019-02-06T00:28:51.587Z,0
2019-02-06T00:29:52.290Z,0
2019-02-06T00:30:52.715Z,0
2019-02-06T00:31:53.153Z,0
2019-02-06T00:32:56.599Z,0
2019-02-06T00:33:55.314Z,0
2019-02-06T00:34:55.747Z,0
2019-02-06T00:35:56.254Z,0
2019-02-06T00:36:56.968Z,0
2019-02-06T00:37:57.451Z,0
2019-02-06T00:38:58.442Z,0
2019-02-06T00:39:58.861Z,0
2019-02-06T00:41:01.218Z,0
2019-02-06T00:42:00.862Z,0
2019-02-06T00:43:02.514Z,0
2019-02-06T00:44:02.237Z,0
2019-02-06T00:45:03.501Z,0
2019-02-06T00:46:04.042Z,0
2019-02-06T00:47:04.459Z,0
2019-02-06T00:48:05.904Z,0
2019-02-06T00:49:06.365Z,0
2019-02-06T00:50:08.760Z,0
2019-02-06T00:51:07.555Z,0
2019-02-06T00:52:08.003Z,0
2019-02-06T00:53:08.706Z,0
2019-02-06T00:54:09.707Z,0
2019-02-06T00:55:10.129Z,0
2019-02-06T00:56:10.556Z,0
2019-02-06T00:57:11.986Z,0
2019-02-06T00:58:14.693Z,0
2019-02-06T00:59:13.528Z,0
2019-02-06T01:00:13.959Z,0
2019-02-06T01:01:14.374Z,0
2019-02-06T01:02:15.626Z,0
2019-02-06T01:03:17.061Z,0
2019-02-06T01:04:29.197Z,0
2019-02-06T01:05:42.348Z,0
2019-02-06T01:06:43.044Z,0
2019-02-06T01:07:43.451Z,0
2019-02-06T01:08:44.812Z,0
2019-02-06T01:09:46.687Z,0
2019-02-06T01:10:45.831Z,0
2019-02-06T01:11:47.240Z,0
2019-02-06T01:12:48.493Z,0
2019-02-06T01:13:48.915Z,0
2019-02-06T01:14:49.345Z,0
2019-02-06T01:15:50.344Z,0
2019-02-06T01:16:49.941Z,0
2019-02-06T01:17:51.964Z,0
2019-02-06T01:18:52.120Z,0
2019-02-06T01:19:52.350Z,0
2019-02-06T01:20:53.322Z,0
2019-02-06T01:21:54.047Z,0
2019-02-06T01:22:54.753Z,0
2019-02-06T01:23:55.166Z,0
2019-02-06T01:24:56.855Z,0
2019-02-06T01:25:57.553Z,0
2019-02-06T01:26:58.627Z,0
2019-02-06T01:27:59.146Z,0
2019-02-06T01:29:00.124Z,0
2019-02-06T01:30:01.236Z,0
2019-02-06T01:31:01.533Z,0
2019-02-06T01:32:02.229Z,0
2019-02-06T01:33:03.214Z,0
2019-02-06T01:34:03.383Z,0
2019-02-06T01:35:06.352Z,0
2019-02-06T01:36:05.249Z,0
2019-02-06T01:37:06.345Z,0
2019-02-06T01:38:06.546Z,0
2019-02-06T01:39:07.244Z,0
2019-02-06T01:40:07.933Z,0
2019-02-06T01:41:08.581Z,0
2019-02-06T01:42:08.821Z,0
2019-02-06T01:43:11.250Z,0
2019-02-06T01:44:11.037Z,0
2019-02-06T01:45:11.473Z,0
2019-02-06T01:46:12.460Z,0
2019-02-06T01:47:12.740Z,0
2019-02-06T01:48:13.888Z,0
2019-02-06T01:49:14.581Z,0
2019-02-06T01:50:15.396Z,0
2019-02-06T01:51:17.512Z,0
2019-02-06T01:52:17.652Z,0
2019-02-06T01:53:18.634Z,0
2019-02-06T01:54:18.768Z,0
2019-02-06T01:55:20.206Z,0
2019-02-06T01:56:20.905Z,0
2019-02-06T01:57:21.548Z,0
2019-02-06T01:58:22.257Z,0
2019-02-06T01:59:22.898Z,0
2019-02-06T02:00:23.321Z,0
2019-02-06T02:01:24.608Z,0
2019-02-06T02:02:24.733Z,0
2019-02-06T02:03:26.156Z,0
2019-02-06T02:04:26.364Z,0
2019-02-06T02:05:26.891Z,0
2019-02-06T02:06:28.604Z,0
2019-02-06T02:07:28.714Z,0
2019-02-06T02:08:29.756Z,0
2019-02-06T02:09:29.862Z,0
2019-02-06T02:10:30.553Z,0
2019-02-06T02:11:31.241Z,0
2019-02-06T02:12:32.208Z,0
2019-02-06T02:13:32.622Z,0
2019-02-06T02:14:33.036Z,0
2019-02-06T02:15:33.450Z,0
2019-02-06T02:16:35.644Z,0
2019-02-06T02:17:35.279Z,0
2019-02-06T02:18:36.683Z,0
2019-02-06T02:19:36.840Z,0
2019-02-06T02:20:37.533Z,0
2019-02-06T02:21:37.946Z,0
2019-02-06T02:22:38.672Z,0
2019-02-06T02:23:39.362Z,0
2019-02-06T02:24:41.190Z,0
2019-02-06T02:25:41.224Z,0
2019-02-06T02:26:41.198Z,0
2019-02-06T02:27:41.757Z,0
2019-02-06T02:28:43.217Z,0
2019-02-06T02:29:43.623Z,0
2019-02-06T02:30:45.212Z,0
2019-02-06T02:31:45.465Z,0
2019-02-06T02:32:46.167Z,0
2019-02-06T02:33:48.806Z,0
2019-02-06T02:34:47.350Z,0
2019-02-06T02:35:48.324Z,0
2019-02-06T02:36:49.154Z,0
2019-02-06T02:37:50.448Z,0
2019-02-06T02:38:50.424Z,0
2019-02-06T02:39:50.947Z,0
2019-02-06T02:40:52.221Z,0
2019-02-06T02:41:53.746Z,0
2019-02-06T02:42:54.137Z,0
2019-02-06T02:43:54.853Z,0
2019-02-06T02:44:56.119Z,0
2019-02-06T02:45:56.825Z,0
2019-02-06T02:46:58.085Z,0
2019-02-06T02:47:59.223Z,0
2019-02-06T02:49:00.220Z,0
2019-02-06T02:50:00.861Z,0
2019-02-06T02:51:03.523Z,0
2019-02-06T02:52:02.699Z,0
2019-02-06T02:53:03.508Z,0
2019-02-06T02:54:05.047Z,0
2019-02-06T02:55:06.020Z,0
2019-02-06T02:56:07.296Z,0
2019-02-06T02:57:08.007Z,0
2019-02-06T02:58:09.565Z,0
2019-02-06T02:59:10.264Z,0
2019-02-06T03:00:10.277Z,0
2019-02-06T03:01:11.296Z,0
2019-02-06T03:02:12.279Z,0
2019-02-06T03:03:13.277Z,0
2019-02-06T03:04:13.695Z,0
2019-02-06T03:05:14.579Z,0
2019-02-06T03:06:30.689Z,0
2019-02-06T03:07:29.984Z,0
2019-02-06T03:08:31.140Z,0
2019-02-06T03:09:31.880Z,0
2019-02-06T03:10:33.814Z,0
2019-02-06T03:11:33.093Z,0
2019-02-06T03:12:34.428Z,0
2019-02-06T03:13:35.143Z,0
2019-02-06T03:14:36.134Z,0
2019-02-06T03:15:36.558Z,0
2019-02-06T03:16:37.355Z,0
2019-02-06T03:17:38.319Z,0
2019-02-06T03:18:40.328Z,0
2019-02-06T03:19:40.362Z,0
2019-02-06T03:20:40.641Z,0
2019-02-06T03:21:40.771Z,0
2019-02-06T03:22:41.931Z,0
2019-02-06T03:23:42.340Z,0
2019-02-06T03:24:43.611Z,0
2019-02-06T03:25:44.887Z,0
2019-02-06T03:26:46.117Z,0
2019-02-06T03:27:46.797Z,0
2019-02-06T03:28:46.795Z,0
2019-02-06T03:29:47.214Z,0
2019-02-06T03:30:48.505Z,0
2019-02-06T03:31:49.954Z,0
2019-02-06T03:32:50.832Z,0
2019-02-06T03:33:50.328Z,0
2019-02-06T03:34:51.018Z,0
2019-02-06T03:35:53.499Z,0
2019-02-06T03:36:53.104Z,0
2019-02-06T03:37:53.530Z,0
2019-02-06T03:38:53.952Z,0
2019-02-06T03:39:55.484Z,0
2019-02-06T03:40:56.184Z,0
2019-02-06T03:41:56.616Z,0
2019-02-06T03:42:57.046Z,0
2019-02-06T03:43:59.959Z,0
2019-02-06T03:44:59.421Z,0
2019-02-06T03:46:00.408Z,0
2019-02-06T03:47:01.677Z,0
2019-02-06T03:48:02.670Z,0
2019-02-06T03:49:03.650Z,0
2019-02-06T03:50:04.069Z,0
2019-02-06T03:51:04.939Z,0
2019-02-06T03:52:06.647Z,0
2019-02-06T03:53:06.619Z,0
2019-02-06T03:54:06.581Z,0
2019-02-06T03:55:08.272Z,0
2019-02-06T03:56:08.567Z,0
2019-02-06T03:57:09.550Z,0
2019-02-06T03:58:10.682Z,0
2019-02-06T03:59:10.664Z,0
2019-02-06T04:00:12.001Z,0
2019-02-06T04:01:14.986Z,0
2019-02-06T04:02:13.799Z,0
2019-02-06T04:03:14.894Z,0
2019-02-06T04:04:15.874Z,0
2019-02-06T04:05:16.886Z,0
2019-02-06T04:06:17.589Z,0
2019-02-06T04:07:17.909Z,0
2019-02-06T04:08:19.201Z,0
2019-02-06T04:09:21.709Z,0
2019-02-06T04:10:21.111Z,0
2019-02-06T04:11:21.527Z,0
2019-02-06T04:12:22.500Z,0
2019-02-06T04:13:22.631Z,0
2019-02-06T04:14:24.877Z,0
2019-02-06T04:15:24.461Z,0
2019-02-06T04:16:25.436Z,0
2019-02-06T04:17:26.755Z,0
2019-02-06T04:18:27.524Z,0
2019-02-06T04:19:28.197Z,0
2019-02-06T04:20:28.580Z,0
2019-02-06T04:21:29.325Z,0
2019-02-06T04:22:31.138Z,0
2019-02-06T04:23:31.043Z,0
2019-02-06T04:24:31.458Z,0
2019-02-06T04:25:32.498Z,0
2019-02-06T04:26:35.087Z,0
2019-02-06T04:27:34.061Z,0
2019-02-06T04:28:35.053Z,0
2019-02-06T04:29:36.619Z,0
2019-02-06T04:30:36.895Z,0
2019-02-06T04:31:36.596Z,0
2019-02-06T04:32:37.306Z,0
2019-02-06T04:33:38.006Z,0
2019-02-06T04:34:40.145Z,0
2019-02-06T04:35:39.857Z,0
2019-02-06T04:36:40.467Z,0
2019-02-06T04:37:41.149Z,0
2019-02-06T04:38:42.538Z,0
2019-02-06T04:39:43.305Z,0
2019-02-06T04:40:43.987Z,0
2019-02-06T04:41:44.984Z,0
2019-02-06T04:42:45.703Z,0
2019-02-06T04:43:48.903Z,0
2019-02-06T04:44:47.601Z,0
2019-02-06T04:45:47.855Z,0
2019-02-06T04:46:48.545Z,0
2019-02-06T04:47:49.592Z,0
2019-02-06T04:48:50.967Z,0
2019-02-06T04:49:52.313Z,0
2019-02-06T04:50:53.292Z,0
2019-02-06T04:51:55.131Z,0
2019-02-06T04:52:54.975Z,0
2019-02-06T04:53:55.337Z,0
2019-02-06T04:54:55.757Z,0
2019-02-06T04:55:57.459Z,0
2019-02-06T04:56:58.191Z,0
2019-02-06T04:57:59.160Z,0
2019-02-06T04:58:59.290Z,0
2019-02-06T05:00:00.586Z,0
2019-02-06T05:01:02.843Z,0
2019-02-06T05:02:02.860Z,0
2019-02-06T05:03:02.850Z,0
2019-02-06T05:04:04.100Z,0
2019-02-06T05:05:04.636Z,0
2019-02-06T05:06:04.363Z,0
2019-02-06T05:07:05.400Z,0
2019-02-06T05:07:21.013Z,0
2019-02-06T05:08:18.341Z,0
2019-02-06T05:09:19.053Z,0
2019-02-06T05:10:21.565Z,0
2019-02-06T05:11:21.640Z,0
2019-02-06T05:12:21.633Z,0
2019-02-06T05:13:23.172Z,0
2019-02-06T05:14:22.870Z,0
2019-02-06T05:15:23.003Z,0
2019-02-06T05:16:24.408Z,0
2019-02-06T05:17:24.820Z,0
2019-02-06T05:18:26.580Z,0
2019-02-06T05:19:26.730Z,0
2019-02-06T05:20:28.163Z,4
2019-02-06T05:21:29.031Z,0
2019-02-06T05:22:30.012Z,0
2019-02-06T05:23:30.264Z,0
2019-02-06T05:24:31.231Z,0
2019-02-06T05:25:30.937Z,0
2019-02-06T05:26:31.913Z,0
2019-02-06T05:27:34.654Z,0
2019-02-06T05:28:33.555Z,0
2019-02-06T05:29:33.994Z,4
2019-02-06T05:30:36.086Z,0
2019-02-06T05:31:36.789Z,0
2019-02-06T05:32:37.485Z,4
2019-02-06T05:32:49.487Z,4
2019-02-06T05:33:49.959Z,0
2019-02-06T05:34:50.538Z,0
2019-02-06T05:35:51.548Z,0
2019-02-06T05:36:53.366Z,0
2019-02-06T05:37:54.978Z,0
2019-02-06T05:38:54.353Z,0
2019-02-06T05:39:55.434Z,0
2019-02-06T05:40:55.948Z,0
2019-02-06T05:41:56.643Z,0
2019-02-06T05:42:57.084Z,0
2019-02-06T05:43:58.408Z,0
2019-02-06T05:44:59.145Z,0
2019-02-06T05:46:01.120Z,0
2019-02-06T05:47:00.535Z,0
2019-02-06T05:48:01.596Z,0
2019-02-06T05:49:02.946Z,0
2019-02-06T05:50:02.935Z,0
2019-02-06T05:51:04.092Z,0
2019-02-06T05:52:04.823Z,0
2019-02-06T05:53:05.829Z,0
2019-02-06T05:54:07.844Z,0
2019-02-06T05:55:07.160Z,0
2019-02-06T05:56:07.873Z,0
2019-02-06T05:57:09.144Z,0
2019-02-06T05:58:10.701Z,0
2019-02-06T05:59:10.685Z,4
2019-02-06T06:00:11.386Z,4
2019-02-06T06:01:11.930Z,4
2019-02-06T06:02:14.378Z,4
2019-02-06T06:03:14.100Z,0
2019-02-06T06:04:14.091Z,4
2019-02-06T06:05:14.513Z,4
2019-02-06T06:06:15.485Z,4
2019-02-06T06:07:17.271Z,8
2019-02-06T06:08:17.973Z,4
2019-02-06T06:09:19.123Z,8
2019-02-06T06:10:20.916Z,8
2019-02-06T06:11:20.349Z,12
2019-02-06T06:12:21.058Z,12
2019-02-06T06:13:22.102Z,16
2019-02-06T06:14:22.976Z,20
2019-02-06T06:15:23.683Z,24
2019-02-06T06:16:24.108Z,28
2019-02-06T06:17:25.978Z,32
2019-02-06T06:18:26.495Z,40
2019-02-06T06:19:27.198Z,48
2019-02-06T06:20:28.389Z,56
2019-02-06T06:21:28.371Z,68
2019-02-06T06:22:29.639Z,76
2019-02-06T06:23:30.343Z,88
2019-02-06T06:24:30.757Z,104
2019-02-06T06:25:32.356Z,120
2019-02-06T06:26:32.211Z,136
2019-02-06T06:27:34.125Z,156
2019-02-06T06:28:33.746Z,180
2019-02-06T06:29:34.338Z,204
2019-02-06T06:30:35.048Z,228
2019-02-06T06:31:35.748Z,252
2019-02-06T06:32:37.111Z,280
2019-02-06T06:33:37.814Z,312
2019-02-06T06:34:38.507Z,340
2019-02-06T06:35:40.061Z,372
2019-02-06T06:36:39.683Z,408
2019-02-06T06:37:43.968Z,448
2019-02-06T06:38:04.759Z,460
2019-02-06T06:39:04.808Z,500
2019-02-06T06:40:04.927Z,540
2019-02-06T06:41:06.182Z,580
2019-02-06T06:42:05.944Z,624
2019-02-06T06:43:06.904Z,668
2019-02-06T06:44:06.650Z,712
2019-02-06T06:45:07.357Z,756
2019-02-06T06:46:08.143Z,804
2019-02-06T06:47:11.026Z,848
2019-02-06T06:48:10.455Z,892
2019-02-06T06:49:10.398Z,936
2019-02-06T06:50:10.932Z,988
2019-02-06T06:51:12.179Z,1032
2019-02-06T06:52:12.625Z,1076
2019-02-06T06:53:13.872Z,1128
2019-02-06T06:54:14.407Z,1180
2019-02-06T06:55:16.248Z,1232
2019-02-06T06:56:15.610Z,1296
2019-02-06T06:57:16.320Z,1452
2019-02-06T06:58:16.745Z,3572
2019-02-06T06:59:18.082Z,4012
2019-02-06T07:00:18.174Z,2396
2019-02-06T07:01:18.584Z,2268
2019-02-06T07:02:19.845Z,2308
2019-02-06T07:03:21.373Z,1980
2019-02-06T07:04:21.062Z,1900
2019-02-06T07:05:21.525Z,1968
2019-02-06T07:06:21.977Z,2252
2019-02-06T07:07:23.284Z,2912
2019-02-06T07:08:23.000Z,3172
2019-02-06T07:09:24.728Z,2740
2019-02-06T07:10:25.726Z,2488
2019-02-06T07:11:26.145Z,2844
2019-02-06T07:12:29.244Z,3040
2019-02-06T07:13:28.979Z,3072
2019-02-06T07:14:29.399Z,3268
2019-02-06T07:15:30.231Z,3216
2019-02-06T07:16:31.510Z,2852
2019-02-06T07:17:32.796Z,2976
2019-02-06T07:18:33.479Z,3512
2019-02-06T07:19:33.547Z,4144
2019-02-06T07:20:35.878Z,3936
2019-02-06T07:21:36.012Z,3176
2019-02-06T07:22:36.586Z,3260
2019-02-06T07:23:37.532Z,3788
2019-02-06T07:24:38.318Z,9436
2019-02-06T07:25:38.735Z,18752
2019-02-06T07:26:40.178Z,15808
2019-02-06T07:27:40.900Z,9892
2019-02-06T07:28:41.882Z,7628
2019-02-06T07:29:44.692Z,9668
2019-02-06T07:30:43.368Z,11320
2019-02-06T07:31:44.068Z,16256
2019-02-06T07:32:44.208Z,21696
2019-02-06T07:33:45.620Z,16512
2019-02-06T07:34:46.325Z,12004
2019-02-06T07:35:46.744Z,10240
2019-02-06T07:36:48.023Z,5532
2019-02-06T07:37:49.955Z,5164
2019-02-06T07:38:49.297Z,5368
2019-02-06T07:39:50.132Z,5564
2019-02-06T07:40:51.385Z,5840
2019-02-06T07:41:52.088Z,13396
2019-02-06T07:42:53.074Z,35136
2019-02-06T07:43:53.505Z,46432
2019-02-06T07:44:56.205Z,48032
2019-02-06T07:45:59.427Z,48576
2019-02-06T07:47:00.584Z,46944
2019-02-06T07:47:16.125Z,46496
2019-02-06T07:47:26.539Z,45280
2019-02-06T07:48:26.128Z,39360
2019-02-06T07:49:26.292Z,32576
2019-02-06T07:50:29.426Z,28448
2019-02-06T07:51:29.040Z,45536
2019-02-06T07:52:29.741Z,55520
2019-02-06T07:53:29.995Z,37024
2019-02-06T07:54:30.128Z,26784
2019-02-06T07:55:30.571Z,35456
2019-02-06T07:56:30.992Z,43424
2019-02-06T07:57:31.694Z,50944
2019-02-06T07:58:33.759Z,47104
2019-02-06T07:59:32.915Z,31488
2019-02-06T08:00:34.482Z,21728
2019-02-06T08:01:35.293Z,23488
2019-02-06T08:02:35.733Z,21600
2019-02-06T08:03:37.725Z,21184
2019-02-06T08:04:41.440Z,17760
2019-02-06T08:05:40.853Z,15424
2019-02-06T08:06:40.965Z,19200
2019-02-06T08:07:43.397Z,24640
2019-02-06T08:08:43.625Z,24800
2019-02-06T08:09:44.627Z,23424
2019-02-06T08:10:44.898Z,21408
2019-02-06T08:11:45.601Z,20864
2019-02-06T08:12:47.343Z,14676
2019-02-06T08:13:48.739Z,9304
2019-02-06T08:14:48.502Z,9184
2019-02-06T08:15:51.008Z,9204
2019-02-06T08:16:50.573Z,11348
2019-02-06T08:17:51.827Z,21952
2019-02-06T08:18:52.565Z,20000
2019-02-06T08:19:53.269Z,11196
2019-02-06T08:20:53.433Z,9480
2019-02-06T08:21:55.004Z,9108
2019-02-06T08:22:55.715Z,9152
2019-02-06T08:23:56.573Z,12220
2019-02-06T08:24:57.010Z,25440
2019-02-06T08:25:57.415Z,29312
2019-02-06T08:26:58.114Z,28960
2019-02-06T08:27:58.837Z,16960
2019-02-06T08:28:59.421Z,11868
2019-02-06T08:30:00.322Z,22240
2019-02-06T08:31:01.158Z,25408
2019-02-06T08:32:01.589Z,20800
2019-02-06T08:33:03.912Z,11832
2019-02-06T08:34:03.379Z,9364
2019-02-06T08:35:04.661Z,9288
2019-02-06T08:36:04.086Z,9304
2019-02-06T08:37:05.502Z,9316
2019-02-06T08:38:06.165Z,10860
2019-02-06T08:38:55.846Z,13660
2019-02-06T08:39:02.955Z,14468
2019-02-06T08:40:02.979Z,21952
2019-02-06T08:41:04.706Z,30176
2019-02-06T08:42:08.481Z,32384
2019-02-06T08:43:06.519Z,27488
2019-02-06T08:44:07.265Z,28736
2019-02-06T08:45:07.014Z,30368
2019-02-06T08:46:08.050Z,32288
2019-02-06T08:47:09.048Z,37248
2019-02-06T08:48:09.289Z,51264
2019-02-06T08:49:13.298Z,55168
2019-02-06T08:50:13.135Z,50816
2019-02-06T08:51:14.565Z,44800
2019-02-06T08:52:14.712Z,31232
2019-02-06T08:53:15.689Z,18240
2019-02-06T08:54:16.235Z,30176
2019-02-06T08:55:17.954Z,32576
2019-02-06T08:56:18.750Z,31008
2019-02-06T08:57:19.177Z,34752
2019-02-06T08:58:22.202Z,51104
2019-02-06T08:59:21.987Z,58912
2019-02-06T09:00:22.711Z,50048
2019-02-06T09:01:23.969Z,31648
2019-02-06T09:02:24.509Z,14096
2019-02-06T09:03:24.934Z,10260
2019-02-06T09:04:26.195Z,10120
2019-02-06T09:05:26.910Z,10192
2019-02-06T09:06:29.243Z,10136
2019-02-06T09:07:29.503Z,10588
2019-02-06T09:08:29.927Z,10784
2019-02-06T09:09:30.353Z,11648
2019-02-06T09:10:31.283Z,11708
2019-02-06T09:11:31.999Z,11400
2019-02-06T09:12:33.697Z,16792
2019-02-06T09:13:34.397Z,17280
2019-02-06T09:14:35.108Z,19168
2019-02-06T09:15:38.033Z,22112
2019-02-06T09:16:36.463Z,30976
2019-02-06T09:17:37.632Z,40448
2019-02-06T09:18:38.794Z,37888
2019-02-06T09:19:39.289Z,28320
2019-02-06T09:20:40.546Z,19616
2019-02-06T09:21:40.981Z,17440
2019-02-06T09:22:41.725Z,21312
2019-02-06T09:23:44.668Z,18240
2019-02-06T09:24:43.721Z,14184
2019-02-06T09:25:45.012Z,14452
2019-02-06T09:26:45.742Z,14820
2019-02-06T09:27:46.174Z,14648
2019-02-06T09:28:47.607Z,16184
2019-02-06T09:29:48.049Z,16080
2019-02-06T09:30:49.045Z,17664
2019-02-06T09:31:54.716Z,16108
2019-02-06T09:32:05.498Z,15816
2019-02-06T09:32:14.663Z,15760
2019-02-06T09:33:14.288Z,17184
2019-02-06T09:34:14.986Z,18592
2019-02-06T09:35:17.349Z,17856
2019-02-06T09:36:16.771Z,17408
2019-02-06T09:37:17.521Z,19488
2019-02-06T09:38:17.957Z,25120
2019-02-06T09:39:18.672Z,24928
2019-02-06T09:40:19.098Z,20928
2019-02-06T09:41:20.254Z,21248
2019-02-06T09:42:21.985Z,23520
2019-02-06T09:43:23.176Z,25376
2019-02-06T09:44:23.321Z,29472
2019-02-06T09:45:24.618Z,35488
2019-02-06T09:46:24.795Z,38784
2019-02-06T09:47:25.564Z,42848
2019-02-06T09:48:25.714Z,49856
2019-02-06T09:49:27.155Z,47200
2019-02-06T09:50:28.719Z,41728
2019-02-06T09:51:29.163Z,44224
2019-02-06T09:52:32.528Z,44672
2019-02-06T09:53:32.256Z,44480
2019-02-06T09:54:32.526Z,57952
2019-02-06T09:55:33.366Z,81472
2019-02-06T09:56:34.105Z,88032
2019-02-06T09:57:37.234Z,88704
2019-02-06T09:58:38.538Z,82528
2019-02-06T09:59:38.827Z,75936
2019-02-06T10:00:39.565Z,72672
2019-02-06T10:01:47.759Z,51648
2019-02-06T10:01:56.447Z,48704
2019-02-06T10:02:55.936Z,50784
2019-02-06T10:03:54.580Z,57824
2019-02-06T10:04:56.057Z,54656
2019-02-06T10:05:56.207Z,52384
2019-02-06T10:07:00.373Z,61152
2019-02-06T10:07:59.491Z,69568
2019-02-06T10:08:58.938Z,67616
2019-02-06T10:10:05.264Z,60512
2019-02-06T10:10:17.230Z,59424
2019-02-06T10:10:25.269Z,58624
2019-02-06T10:11:24.924Z,50944
2019-02-06T10:12:26.184Z,48960
2019-02-06T10:13:25.660Z,41120
2019-02-06T10:14:29.035Z,38496
2019-02-06T10:15:28.501Z,46624
2019-02-06T10:16:33.626Z,50240
2019-02-06T10:16:42.485Z,49376
2019-02-06T10:17:41.717Z,47232
2019-02-06T10:18:42.537Z,53248
2019-02-06T10:19:44.268Z,54112
2019-02-06T10:20:45.105Z,51072
2019-02-06T10:21:45.538Z,45248
2019-02-06T10:22:46.250Z,57280
2019-02-06T10:23:46.983Z,71872
2019-02-06T10:24:49.028Z,71552
2019-02-06T10:25:48.671Z,74880
2019-02-06T10:26:48.843Z,73568
2019-02-06T10:27:49.810Z,79200
2019-02-06T10:28:50.261Z,75680
2019-02-06T10:29:50.705Z,74816
2019-02-06T10:30:51.710Z,83328
2019-02-06T10:31:55.805Z,85216
2019-02-06T10:32:53.767Z,88288
2019-02-06T10:33:54.824Z,82144
2019-02-06T10:34:54.765Z,76096
2019-02-06T10:35:55.750Z,83488
2019-02-06T10:36:56.190Z,77760
2019-02-06T10:37:56.418Z,72192
2019-02-06T10:38:57.841Z,71136
2019-02-06T10:40:00.723Z,73888
2019-02-06T10:41:05.209Z,68096
2019-02-06T10:42:03.893Z,75200
2019-02-06T10:43:03.898Z,79648
2019-02-06T10:44:04.623Z,78080
2019-02-06T10:45:05.065Z,76960
2019-02-06T10:46:06.804Z,78144
2019-02-06T10:47:06.964Z,80128
2019-02-06T10:48:07.568Z,76416
2019-02-06T10:49:08.005Z,76224
2019-02-06T10:50:09.106Z,76096
2019-02-06T10:51:09.898Z,73024
2019-02-06T10:52:10.103Z,69088
2019-02-06T10:53:10.868Z,74272
2019-02-06T10:54:11.322Z,74464
2019-02-06T10:55:12.216Z,75808
2019-02-06T10:56:13.374Z,72352
2019-02-06T10:57:14.630Z,64192
2019-02-06T10:58:15.167Z,78080
2019-02-06T10:59:18.537Z,70560
2019-02-06T11:00:17.641Z,69184
2019-02-06T11:01:17.115Z,63744
2019-02-06T11:02:21.540Z,60608
2019-02-06T11:03:20.476Z,62336
2019-02-06T11:04:21.785Z,64768
2019-02-06T11:05:22.547Z,68672
2019-02-06T11:06:24.106Z,62848
2019-02-06T11:07:24.516Z,69728
2019-02-06T11:08:24.910Z,67360
2019-02-06T11:09:25.683Z,46784
2019-02-06T11:10:26.429Z,56064
2019-02-06T11:11:27.147Z,63616
2019-02-06T11:12:27.884Z,73024
2019-02-06T11:13:28.423Z,75200
2019-02-06T11:14:29.462Z,71040
2019-02-06T11:15:29.898Z,67744
2019-02-06T11:16:31.293Z,70880
2019-02-06T11:17:31.770Z,72608
2019-02-06T11:18:33.465Z,71584
2019-02-06T11:19:33.621Z,69504
2019-02-06T11:20:34.132Z,64672
2019-02-06T11:21:34.844Z,67168
2019-02-06T11:22:35.565Z,62624
2019-02-06T11:23:35.994Z,59520
2019-02-06T11:24:38.942Z,61536
2019-02-06T11:25:39.500Z,66528
2019-02-06T11:26:45.279Z,62432
2019-02-06T11:26:58.509Z,61728
2019-02-06T11:27:10.381Z,60960
2019-02-06T11:27:20.362Z,60672
2019-02-06T11:28:17.140Z,63168
2019-02-06T11:29:17.151Z,69152
2019-02-06T11:30:19.979Z,71328
2019-02-06T11:31:18.898Z,74784
2019-02-06T11:32:25.281Z,65248
2019-02-06T11:32:36.185Z,60864
2019-02-06T11:32:46.667Z,57312
2019-02-06T11:33:44.224Z,51648
2019-02-06T11:34:45.941Z,70304
2019-02-06T11:35:46.980Z,71360
2019-02-06T11:36:47.410Z,66208
2019-02-06T11:37:51.786Z,65792
2019-02-06T11:38:56.025Z,52064
2019-02-06T11:39:06.554Z,58592
2019-02-06T11:40:06.429Z,50112
2019-02-06T11:41:05.136Z,29568
2019-02-06T11:42:05.584Z,22176
2019-02-06T11:43:06.460Z,31712
2019-02-06T11:44:08.295Z,39744
2019-02-06T11:45:07.876Z,41152
2019-02-06T11:46:15.947Z,34272
2019-02-06T11:46:24.507Z,32608
2019-02-06T11:46:37.874Z,31808
2019-02-06T11:46:49.200Z,33248
2019-02-06T11:46:59.680Z,34016
2019-02-06T11:47:58.394Z,46560
2019-02-06T11:48:58.856Z,40864
2019-02-06T11:49:59.594Z,25984
2019-02-06T11:51:00.612Z,30112
2019-02-06T11:52:00.746Z,34464
2019-02-06T11:53:00.936Z,35584
2019-02-06T11:54:01.705Z,47648
2019-02-06T11:55:02.797Z,44416
2019-02-06T11:56:02.783Z,33888
2019-02-06T11:57:03.767Z,26176
2019-02-06T11:58:04.496Z,27904
2019-02-06T11:59:07.500Z,36384
2019-02-06T12:00:07.066Z,50592
2019-02-06T12:01:07.499Z,42944
2019-02-06T12:02:08.647Z,39072
2019-02-06T12:03:11.010Z,30848
2019-02-06T12:04:09.771Z,39840
2019-02-06T12:05:10.336Z,41888
2019-02-06T12:06:11.163Z,41888
2019-02-06T12:07:13.377Z,41216
2019-02-06T12:08:14.637Z,39136
2019-02-06T12:09:15.354Z,38944
2019-02-06T12:10:17.229Z,39552
2019-02-06T12:11:18.078Z,41920
2019-02-06T12:12:18.472Z,32512
2019-02-06T12:13:19.068Z,29376
2019-02-06T12:14:19.404Z,33152
2019-02-06T12:15:20.530Z,35840
2019-02-06T12:16:25.019Z,33760
2019-02-06T12:17:27.018Z,33568
2019-02-06T12:18:27.185Z,38912
2019-02-06T12:19:26.691Z,31616
2019-02-06T12:20:27.423Z,42816
2019-02-06T12:21:28.421Z,41312
2019-02-06T12:22:28.859Z,44000
2019-02-06T12:23:34.189Z,32000
2019-02-06T12:24:35.311Z,28864
2019-02-06T12:25:39.659Z,27040
2019-02-06T12:26:41.826Z,26912
2019-02-06T12:26:54.442Z,27456
2019-02-06T12:27:06.616Z,26944
2019-02-06T12:27:19.012Z,26048
2019-02-06T12:27:31.381Z,25600
2019-02-06T12:27:43.746Z,25568
2019-02-06T12:27:56.672Z,26496
2019-02-06T12:28:09.648Z,26944
2019-02-06T12:28:20.107Z,27008
2019-02-06T12:28:32.279Z,27584
2019-02-06T12:28:44.073Z,28992
2019-02-06T12:29:40.867Z,34208
2019-02-06T12:30:41.864Z,35296
2019-02-06T12:31:42.526Z,34912
2019-02-06T12:32:55.975Z,34496
2019-02-06T12:33:55.023Z,36320
2019-02-06T12:34:56.189Z,34528
2019-02-06T12:35:56.184Z,31424
2019-02-06T12:36:56.401Z,32128
2019-02-06T12:37:57.653Z,33696
2019-02-06T12:38:57.813Z,31584
2019-02-06T12:39:58.537Z,29248
2019-02-06T12:40:59.317Z,29376
2019-02-06T12:42:00.666Z,28224
2019-02-06T12:43:00.829Z,30368
2019-02-06T12:44:01.972Z,29280
2019-02-06T12:45:02.271Z,26560
2019-02-06T12:46:03.716Z,26144
2019-02-06T12:47:05.157Z,24416
2019-02-06T12:48:05.617Z,24160
2019-02-06T12:49:06.915Z,23968
2019-02-06T12:50:12.568Z,22912
2019-02-06T12:50:24.128Z,23552
2019-02-06T12:51:26.009Z,21696
2019-02-06T12:51:35.961Z,21504
2019-02-06T12:51:44.133Z,21248
2019-02-06T12:52:45.830Z,21088
2019-02-06T12:53:51.131Z,22976
2019-02-06T12:54:02.096Z,22944
2019-02-06T12:54:10.706Z,23008
2019-02-06T12:55:09.610Z,24672
2019-02-06T12:56:10.073Z,26496
2019-02-06T12:57:10.895Z,26592
2019-02-06T12:58:12.163Z,26272
2019-02-06T12:59:11.884Z,27424
2019-02-06T13:00:12.892Z,26848
2019-02-06T13:01:13.092Z,26400
2019-02-06T13:02:14.431Z,26976
2019-02-06T13:03:14.876Z,27872
2019-02-06T13:04:15.049Z,27520
2019-02-06T13:05:17.313Z,27904
2019-02-06T13:06:17.419Z,27168
2019-02-06T13:07:19.784Z,26432
2019-02-06T13:08:19.730Z,26048
2019-02-06T13:09:20.151Z,26016
2019-02-06T13:10:33.161Z,23552
2019-02-06T13:10:35.798Z,23200
2019-02-06T13:11:35.932Z,23552
2019-02-06T13:12:38.395Z,24896
2019-02-06T13:13:37.470Z,24352
2019-02-06T13:14:38.736Z,23744
2019-02-06T13:15:39.163Z,23296
2019-02-06T13:16:40.342Z,24192
2019-02-06T13:17:44.057Z,21920
2019-02-06T13:18:42.538Z,20416
2019-02-06T13:19:43.802Z,20160
2019-02-06T13:20:44.531Z,19648
2019-02-06T13:21:44.449Z,19200
2019-02-06T13:22:45.161Z,18752
2019-02-06T13:23:45.188Z,17568
2019-02-06T13:24:45.615Z,15760
2019-02-06T13:25:48.091Z,16448